createdAt,value
2019-02-25T00:00:30.945Z,43.15
2019-02-25T00:03:08.341Z,43.16
2019-02-25T00:05:44.189Z,42.96
2019-02-25T00:08:20.053Z,43.27
2019-02-25T00:10:55.908Z,43.39
2019-02-25T00:13:31.748Z,43.73
2019-02-25T00:16:09.473Z,43.78
2019-02-25T00:18:45.098Z,43.73
2019-02-25T00:21:20.960Z,43.55
2019-02-25T00:23:56.816Z,43.38
2019-02-25T00:26:32.653Z,43.42
2019-02-25T00:29:08.507Z,43.37
2019-02-25T00:31:44.368Z,43.56
2019-02-25T00:34:20.220Z,43.46
2019-02-25T00:36:56.082Z,43.48
2019-02-25T00:39:32.233Z,43.51
2019-02-25T00:42:08.193Z,43.23
2019-02-25T00:44:44.057Z,43.00
2019-02-25T00:47:19.908Z,42.51
2019-02-25T00:49:55.751Z,42.65
2019-02-25T00:52:31.603Z,42.57
2019-02-25T00:55:08.311Z,42.34
2019-02-25T00:57:44.139Z,42.37
2019-02-25T01:00:23.677Z,42.15
2019-02-25T01:02:59.527Z,42.05
2019-02-25T01:05:35.390Z,41.92
2019-02-25T01:08:11.234Z,41.83
2019-02-25T01:10:47.512Z,41.67
2019-02-25T01:13:23.350Z,41.50
2019-02-25T01:15:59.219Z,41.52
2019-02-25T01:18:35.061Z,41.38
2019-02-25T01:21:10.928Z,41.02
2019-02-25T01:23:48.890Z,41.45
2019-02-25T01:26:24.263Z,41.13
2019-02-25T01:29:00.115Z,41.52
2019-02-25T01:31:35.976Z,41.62
2019-02-25T01:34:11.835Z,41.81
2019-02-25T01:36:47.675Z,41.85
2019-02-25T01:39:23.428Z,41.53
2019-02-25T01:41:59.297Z,41.84
2019-02-25T01:44:35.150Z,41.88
2019-02-25T01:47:10.993Z,41.98
2019-02-25T01:49:46.850Z,42.10
2019-02-25T01:52:22.697Z,42.02
2019-02-25T01:54:58.553Z,42.09
2019-02-25T01:57:34.407Z,42.17
2019-02-25T02:00:18.157Z,42.25
2019-02-25T02:02:54.011Z,42.13
2019-02-25T02:05:29.861Z,42.25
2019-02-25T02:08:05.708Z,42.27
2019-02-25T02:10:41.563Z,42.14
2019-02-25T02:13:18.795Z,42.19
2019-02-25T02:15:54.603Z,41.96
2019-02-25T02:18:30.467Z,41.63
2019-02-25T02:21:06.314Z,41.73
2019-02-25T02:23:42.170Z,41.58
2019-02-25T02:26:18.121Z,41.48
2019-02-25T02:28:53.976Z,41.37
2019-02-25T02:31:29.841Z,40.99
2019-02-25T02:34:05.687Z,40.81
2019-02-25T02:36:41.547Z,40.11
2019-02-25T02:39:17.386Z,40.23
2019-02-25T02:42:15.157Z,39.47
2019-02-25T02:44:53.398Z,39.69
2019-02-25T02:47:50.628Z,39.30
2019-02-25T02:50:26.695Z,39.51
2019-02-25T02:53:02.545Z,40.08
2019-02-25T02:55:38.400Z,40.22
2019-02-25T02:58:14.245Z,40.24
2019-02-25T03:00:50.200Z,41.02
2019-02-25T03:03:26.013Z,41.30
2019-02-25T03:06:01.925Z,41.30
2019-02-25T03:08:38.089Z,41.43
2019-02-25T03:11:15.060Z,41.65
2019-02-25T03:13:50.908Z,40.19
2019-02-25T03:16:26.721Z,39.16
2019-02-25T03:19:02.519Z,39.72
2019-02-25T03:21:38.365Z,40.50
2019-02-25T03:24:14.227Z,41.48
2019-02-25T03:26:51.196Z,41.70
2019-02-25T03:29:26.951Z,41.76
2019-02-25T03:32:02.906Z,41.89
2019-02-25T03:34:38.766Z,42.25
2019-02-25T03:37:14.608Z,42.49
2019-02-25T03:39:51.612Z,42.63
2019-02-25T03:42:27.464Z,43.17
2019-02-25T03:45:03.823Z,43.30
2019-02-25T03:47:39.764Z,43.70
2019-02-25T03:50:15.622Z,44.03
2019-02-25T03:52:51.487Z,43.95
2019-02-25T03:55:27.335Z,44.14
2019-02-25T03:58:03.504Z,44.12
2019-02-25T04:00:39.346Z,44.23
2019-02-25T04:03:15.713Z,44.25
2019-02-25T04:05:51.566Z,44.52
2019-02-25T04:08:27.629Z,45.71
2019-02-25T04:11:03.491Z,45.64
2019-02-25T04:13:39.334Z,45.94
2019-02-25T04:16:15.199Z,45.95
2019-02-25T04:18:51.048Z,45.99
2019-02-25T04:21:27.915Z,45.74
2019-02-25T04:24:03.784Z,45.42
2019-02-25T04:26:39.619Z,45.24
2019-02-25T04:29:15.482Z,45.26
2019-02-25T04:31:51.344Z,44.65
2019-02-25T04:34:27.092Z,44.38
2019-02-25T04:37:04.083Z,44.24
2019-02-25T04:39:39.811Z,43.97
2019-02-25T04:42:15.679Z,43.80
2019-02-25T04:44:51.429Z,43.81
2019-02-25T04:47:27.290Z,43.55
2019-02-25T04:50:03.130Z,43.51
2019-02-25T04:52:38.992Z,43.70
2019-02-25T04:55:15.658Z,43.80
2019-02-25T04:57:51.508Z,43.78
2019-02-25T05:00:27.785Z,43.64
2019-02-25T05:03:03.634Z,43.67
2019-02-25T05:05:39.494Z,43.66
2019-02-25T05:08:15.348Z,43.49
2019-02-25T05:10:51.196Z,43.31
2019-02-25T05:13:27.045Z,43.36
2019-02-25T05:16:02.900Z,43.25
2019-02-25T05:18:40.280Z,43.29
2019-02-25T05:21:16.150Z,43.14
2019-02-25T05:23:52.011Z,43.03
2019-02-25T05:26:27.851Z,42.71
2019-02-25T05:29:03.736Z,43.12
2019-02-25T05:31:39.878Z,43.17
2019-02-25T05:34:15.656Z,43.53
2019-02-25T05:36:51.712Z,43.45
2019-02-25T05:39:27.950Z,43.50
2019-02-25T05:42:03.767Z,43.88
2019-02-25T05:44:40.566Z,43.90
2019-02-25T05:47:16.425Z,43.99
2019-02-25T05:49:52.286Z,44.30
2019-02-25T05:52:28.100Z,44.76
2019-02-25T05:55:04.585Z,44.57
2019-02-25T05:57:40.352Z,44.35
2019-02-25T06:00:19.103Z,44.90
2019-02-25T06:02:55.547Z,44.74
2019-02-25T06:05:31.712Z,44.86
2019-02-25T06:08:07.561Z,45.17
2019-02-25T06:10:43.409Z,45.40
2019-02-25T06:13:19.275Z,45.51
2019-02-25T06:15:55.124Z,45.57
2019-02-25T06:18:30.969Z,45.68
2019-02-25T06:21:06.824Z,46.28
2019-02-25T06:23:42.794Z,46.27
2019-02-25T06:26:18.648Z,46.38
2019-02-25T06:29:01.069Z,46.46
2019-02-25T06:31:42.395Z,46.27
2019-02-25T06:34:19.887Z,46.08
2019-02-25T06:36:55.781Z,45.82
2019-02-25T06:39:31.643Z,45.47
2019-02-25T06:42:07.490Z,45.35
2019-02-25T06:44:43.330Z,45.50
2019-02-25T06:47:19.187Z,44.99
2019-02-25T06:49:54.936Z,44.54
2019-02-25T06:52:30.893Z,44.27
2019-02-25T06:55:09.776Z,44.35
2019-02-25T06:57:45.580Z,43.82
2019-02-25T07:00:24.497Z,43.54
2019-02-25T07:03:00.281Z,43.06
2019-02-25T07:05:43.480Z,42.91
2019-02-25T07:08:20.863Z,42.75
2019-02-25T07:10:58.370Z,42.69
2019-02-25T07:13:51.112Z,42.54
2019-02-25T07:16:31.267Z,42.33
2019-02-25T07:19:14.902Z,41.82
2019-02-25T07:21:55.059Z,39.89
2019-02-25T07:24:52.939Z,38.94
2019-02-25T07:27:38.613Z,38.07
2019-02-25T07:30:28.096Z,38.47
2019-02-25T07:33:11.527Z,38.35
2019-02-25T07:35:48.911Z,35.87
2019-02-25T07:38:26.394Z,35.06
2019-02-25T07:41:15.684Z,35.19
2019-02-25T07:44:09.744Z,34.73
2019-02-25T07:46:53.190Z,34.80
2019-02-25T07:49:36.723Z,34.25
2019-02-25T07:52:17.191Z,34.19
2019-02-25T07:55:00.413Z,33.76
2019-02-25T07:57:40.659Z,34.18
2019-02-25T08:00:26.979Z,34.39
2019-02-25T08:03:04.351Z,34.75
2019-02-25T08:05:47.786Z,35.30
2019-02-25T08:08:25.183Z,35.71
2019-02-25T08:11:11.477Z,36.01
2019-02-25T08:13:51.759Z,35.93
2019-02-25T08:16:45.404Z,35.82
2019-02-25T08:19:31.591Z,35.82
2019-02-25T08:22:18.110Z,35.95
2019-02-25T08:25:13.614Z,36.15
2019-02-25T08:28:07.593Z,36.14
2019-02-25T08:31:02.699Z,36.67
2019-02-25T08:33:57.597Z,37.25
2019-02-25T08:37:03.912Z,37.53
2019-02-25T08:39:58.364Z,38.45
2019-02-25T08:42:34.620Z,38.55
2019-02-25T08:45:15.034Z,39.53
2019-02-25T08:47:52.481Z,39.71
2019-02-25T08:50:28.340Z,40.28
2019-02-25T08:53:04.292Z,40.13
2019-02-25T08:55:40.132Z,40.04
2019-02-25T08:58:16.098Z,39.94
2019-02-25T09:00:51.954Z,40.33
2019-02-25T09:03:27.798Z,40.73
2019-02-25T09:06:03.649Z,41.39
2019-02-25T09:08:39.402Z,41.82
2019-02-25T09:11:15.254Z,42.32
2019-02-25T09:13:51.125Z,42.42
2019-02-25T09:16:26.990Z,42.51
2019-02-25T09:19:02.729Z,43.10
2019-02-25T09:21:38.584Z,43.03
2019-02-25T09:24:14.320Z,43.71
2019-02-25T09:26:50.187Z,43.21
2019-02-25T09:29:25.927Z,43.65
2019-02-25T09:32:01.790Z,43.29
2019-02-25T09:34:37.533Z,42.99
2019-02-25T09:37:13.604Z,43.13
2019-02-25T09:39:49.458Z,43.43
2019-02-25T09:42:25.304Z,44.36
2019-02-25T09:45:01.168Z,44.33
2019-02-25T09:47:38.555Z,44.69
2019-02-25T09:50:17.570Z,44.66
2019-02-25T09:52:53.430Z,44.87
2019-02-25T09:55:29.183Z,44.52
2019-02-25T09:58:05.039Z,43.92
2019-02-25T10:00:40.781Z,44.28
2019-02-25T10:03:16.650Z,43.39
2019-02-25T10:05:52.502Z,43.77
2019-02-25T10:08:28.558Z,44.88
2019-02-25T10:11:04.506Z,44.53
2019-02-25T10:13:40.472Z,45.25
2019-02-25T10:16:16.233Z,45.61
2019-02-25T10:18:52.083Z,45.97
2019-02-25T10:21:27.974Z,45.97
2019-02-25T10:24:03.781Z,46.46
2019-02-25T10:26:39.633Z,46.14
2019-02-25T10:29:15.483Z,46.36
2019-02-25T10:31:51.338Z,45.93
2019-02-25T10:34:27.199Z,45.98
2019-02-25T10:37:03.053Z,46.84
2019-02-25T10:39:39.000Z,46.51
2019-02-25T10:42:14.856Z,46.24
2019-02-25T10:44:50.708Z,46.38
2019-02-25T10:47:26.572Z,45.77
2019-02-25T10:50:03.222Z,45.91
2019-02-25T10:52:41.317Z,46.47
2019-02-25T10:55:32.864Z,46.03
2019-02-25T10:58:11.051Z,46.46
2019-02-25T11:00:46.934Z,46.66
2019-02-25T11:03:23.908Z,46.21
2019-02-25T11:06:00.853Z,45.87
2019-02-25T11:08:39.416Z,46.40
2019-02-25T11:11:18.842Z,46.20
2019-02-25T11:13:55.617Z,48.04
2019-02-25T11:16:31.481Z,48.10
2019-02-25T11:19:07.326Z,47.51
2019-02-25T11:21:44.260Z,48.06
2019-02-25T11:24:21.129Z,48.03
2019-02-25T11:26:59.054Z,47.23
2019-02-25T11:29:35.163Z,46.54
2019-02-25T11:32:11.316Z,46.61
2019-02-25T11:34:47.177Z,45.75
2019-02-25T11:37:24.688Z,45.76
2019-02-25T11:40:01.876Z,45.86
2019-02-25T11:42:38.625Z,46.22
2019-02-25T11:45:17.539Z,45.80
2019-02-25T11:47:53.398Z,45.08
2019-02-25T11:50:29.146Z,45.23
2019-02-25T11:53:05.566Z,45.52
2019-02-25T11:55:42.095Z,44.73
2019-02-25T11:58:17.944Z,45.39
2019-02-25T12:00:53.800Z,44.72
2019-02-25T12:03:29.857Z,44.81
2019-02-25T12:06:05.708Z,44.71
2019-02-25T12:08:41.564Z,45.05
2019-02-25T12:11:17.413Z,44.95
2019-02-25T12:13:53.265Z,44.95
2019-02-25T12:16:29.133Z,45.52
2019-02-25T12:19:05.088Z,44.68
2019-02-25T12:21:42.321Z,44.95
2019-02-25T12:24:22.868Z,45.12
2019-02-25T12:27:07.675Z,45.16
2019-02-25T12:29:45.608Z,45.14
2019-02-25T12:32:21.452Z,45.55
2019-02-25T12:35:07.313Z,45.54
2019-02-25T12:37:44.624Z,45.20
2019-02-25T12:40:20.794Z,45.64
2019-02-25T12:42:56.638Z,43.24
2019-02-25T12:45:32.500Z,41.44
2019-02-25T12:48:08.346Z,41.26
2019-02-25T12:50:44.210Z,40.90
2019-02-25T12:53:20.369Z,41.09
2019-02-25T12:55:56.218Z,41.02
2019-02-25T12:58:32.083Z,40.61
2019-02-25T13:01:07.923Z,40.42
2019-02-25T13:03:43.774Z,40.77
2019-02-25T13:06:19.640Z,41.62
2019-02-25T13:08:55.499Z,41.67
2019-02-25T13:11:32.478Z,41.46
2019-02-25T13:14:08.256Z,40.78
2019-02-25T13:16:44.079Z,41.35
2019-02-25T13:19:20.039Z,41.30
2019-02-25T13:21:55.881Z,41.34
2019-02-25T13:24:32.732Z,41.43
2019-02-25T13:27:11.767Z,41.65
2019-02-25T13:29:47.112Z,41.75
2019-02-25T13:32:23.747Z,41.48
2019-02-25T13:34:59.664Z,40.98
2019-02-25T13:37:35.814Z,41.06
2019-02-25T13:40:13.269Z,41.26
2019-02-25T13:42:50.764Z,42.23
2019-02-25T13:45:26.551Z,42.48
2019-02-25T13:48:02.416Z,42.85
2019-02-25T13:50:39.415Z,43.13
2019-02-25T13:53:15.578Z,42.91
2019-02-25T13:55:51.607Z,42.82
2019-02-25T13:58:27.613Z,43.29
2019-02-25T14:01:04.247Z,43.34
2019-02-25T14:03:40.199Z,43.25
2019-02-25T14:06:16.674Z,43.36
2019-02-25T14:08:52.523Z,43.39
2019-02-25T14:11:28.375Z,43.57
2019-02-25T14:14:04.239Z,43.92
2019-02-25T14:16:40.085Z,44.03
2019-02-25T14:19:15.930Z,43.83
2019-02-25T14:21:51.788Z,43.74
2019-02-25T14:24:27.773Z,43.40
2019-02-25T14:27:03.595Z,42.80
2019-02-25T14:29:39.459Z,43.02
2019-02-25T14:32:15.826Z,43.14
2019-02-25T14:34:51.669Z,43.21
2019-02-25T14:37:27.540Z,42.52
2019-02-25T14:40:05.995Z,42.34
2019-02-25T14:42:44.699Z,42.58
2019-02-25T14:45:21.623Z,42.63
2019-02-25T14:47:59.642Z,42.24
2019-02-25T14:50:34.284Z,42.60
2019-02-25T14:53:11.574Z,43.39
2019-02-25T14:55:49.713Z,43.26
2019-02-25T14:58:25.414Z,42.94
2019-02-25T15:01:01.269Z,42.84
2019-02-25T15:03:38.246Z,42.30
2019-02-25T15:06:14.109Z,41.92
2019-02-25T15:08:49.853Z,42.33
2019-02-25T15:11:25.723Z,41.70
2019-02-25T15:14:01.778Z,41.62
2019-02-25T15:16:38.653Z,42.20
2019-02-25T15:19:15.143Z,41.52
2019-02-25T15:21:52.179Z,42.04
2019-02-25T15:24:29.077Z,42.40
2019-02-25T15:27:06.584Z,42.41
2019-02-25T15:29:44.742Z,42.58
2019-02-25T15:32:20.962Z,42.88
2019-02-25T15:34:57.296Z,42.88
2019-02-25T15:37:33.399Z,42.95
2019-02-25T15:40:18.017Z,43.40
2019-02-25T15:43:00.735Z,43.45
2019-02-25T15:45:40.182Z,43.62
2019-02-25T15:48:20.381Z,43.89
2019-02-25T15:50:58.615Z,44.10
2019-02-25T15:53:33.957Z,44.32
2019-02-25T15:56:10.669Z,44.55
2019-02-25T15:58:47.859Z,44.75
2019-02-25T16:01:23.672Z,44.95
2019-02-25T16:04:02.266Z,45.14
2019-02-25T16:06:39.805Z,45.31
2019-02-25T16:09:19.294Z,45.53
2019-02-25T16:11:54.259Z,45.85
2019-02-25T16:14:30.079Z,46.14
2019-02-25T16:17:05.959Z,46.70
2019-02-25T16:19:47.534Z,46.98
2019-02-25T16:22:19.282Z,47.18
2019-02-25T16:24:55.051Z,47.71
2019-02-25T16:27:30.834Z,47.92
2019-02-25T16:30:09.701Z,48.03
2019-02-25T16:32:48.425Z,48.25
2019-02-25T16:35:24.330Z,48.05
2019-02-25T16:38:02.299Z,48.15
2019-02-25T16:40:39.639Z,48.18
2019-02-25T16:43:15.099Z,48.16
2019-02-25T16:45:50.937Z,48.28
2019-02-25T16:48:28.200Z,48.10
2019-02-25T16:51:07.942Z,48.16
2019-02-25T16:53:45.547Z,48.25
2019-02-25T16:56:21.622Z,48.00
2019-02-25T16:58:59.003Z,48.32
2019-02-25T17:12:56.252Z,47.78
2019-02-25T17:15:32.209Z,47.91
2019-02-25T17:18:07.986Z,48.27
2019-02-25T17:20:45.085Z,48.53
2019-02-25T17:23:22.787Z,48.67
2019-02-25T17:25:58.769Z,48.61
2019-02-25T17:28:34.880Z,48.82
2019-02-25T17:31:11.448Z,49.16
2019-02-25T17:33:49.269Z,49.53
2019-02-25T17:36:25.512Z,49.75
2019-02-25T17:39:01.663Z,50.10
2019-02-25T17:41:39.928Z,50.21
2019-02-25T17:44:17.882Z,50.50
2019-02-25T17:46:57.666Z,50.71
2019-02-25T17:49:33.692Z,50.71
2019-02-25T17:52:11.721Z,51.16
2019-02-25T17:54:47.316Z,51.39
2019-02-25T17:57:23.354Z,51.44
2019-02-25T17:59:59.259Z,51.67
2019-02-25T18:02:36.080Z,51.77
2019-02-25T18:05:14.281Z,51.99
2019-02-25T18:07:50.434Z,52.13
2019-02-25T18:10:27.300Z,52.16
2019-02-25T18:13:08.016Z,52.21
2019-02-25T18:15:41.137Z,52.21
2019-02-25T18:18:17.799Z,52.25
2019-02-25T18:20:54.355Z,52.24
2019-02-25T18:23:30.103Z,52.31
2019-02-25T18:26:05.980Z,52.42
2019-02-25T18:28:43.486Z,52.58
2019-02-25T18:31:20.337Z,52.54
2019-02-25T18:33:56.198Z,52.58
2019-02-25T18:36:33.296Z,52.67
2019-02-25T18:39:11.713Z,52.72
2019-02-25T18:41:48.381Z,52.49
2019-02-25T18:44:25.252Z,52.57
2019-02-25T18:47:01.008Z,52.48
2019-02-25T18:49:37.975Z,52.52
2019-02-25T18:52:13.835Z,52.46
2019-02-25T18:54:49.788Z,52.53
2019-02-25T18:57:27.215Z,52.53
2019-02-25T19:00:04.535Z,52.39
2019-02-25T19:02:42.322Z,52.61
2019-02-25T19:05:18.100Z,52.67
2019-02-25T19:07:55.525Z,52.75
2019-02-25T19:10:31.546Z,52.91
2019-02-25T19:13:07.639Z,52.79
2019-02-25T19:15:43.767Z,52.89
2019-02-25T19:18:19.921Z,52.94
2019-02-25T19:20:55.718Z,53.03
2019-02-25T19:23:34.962Z,53.02
2019-02-25T19:26:10.482Z,53.07
2019-02-25T19:28:48.082Z,53.01
2019-02-25T19:31:26.143Z,53.02
2019-02-25T19:34:01.836Z,52.81
2019-02-25T19:36:39.057Z,52.96
2019-02-25T19:39:16.965Z,53.03
2019-02-25T19:41:53.823Z,53.04
2019-02-25T19:44:31.592Z,53.21
2019-02-25T19:47:09.698Z,53.18
2019-02-25T19:49:46.011Z,53.23
2019-02-25T19:52:21.987Z,53.42
2019-02-25T19:54:57.800Z,53.44
2019-02-25T19:57:33.639Z,53.59
2019-02-25T20:00:14.893Z,53.69
2019-02-25T20:02:52.784Z,53.82
2019-02-25T20:05:29.277Z,53.97
2019-02-25T20:08:05.172Z,54.00
2019-02-25T20:10:41.297Z,54.05
2019-02-25T20:13:22.000Z,54.32
2019-02-25T20:15:56.210Z,54.27
2019-02-25T20:18:34.962Z,54.18
2019-02-25T20:21:10.082Z,54.51
2019-02-25T20:23:47.987Z,54.42
2019-02-25T20:26:24.762Z,54.60
2019-02-25T20:29:01.909Z,54.42
2019-02-25T20:31:38.622Z,54.48
2019-02-25T20:34:16.485Z,54.44
2019-02-25T20:36:53.067Z,54.43
2019-02-25T20:39:31.786Z,54.24
2019-02-25T20:42:07.932Z,54.21
2019-02-25T20:44:43.668Z,54.18
2019-02-25T20:47:19.635Z,54.38
2019-02-25T20:49:56.068Z,54.39
2019-02-25T20:52:34.108Z,54.51
2019-02-25T20:55:12.852Z,54.56
2019-02-25T20:57:50.214Z,54.46
2019-02-25T21:00:35.031Z,54.35
2019-02-25T21:03:14.314Z,54.45
2019-02-25T21:05:49.656Z,54.52
2019-02-25T21:08:25.537Z,54.46
2019-02-25T21:11:06.369Z,54.67
2019-02-25T21:13:40.294Z,54.46
2019-02-25T21:16:16.331Z,54.64
2019-02-25T21:18:53.365Z,54.74
2019-02-25T21:21:30.905Z,54.82
2019-02-25T21:24:08.918Z,54.79
2019-02-25T21:26:45.023Z,54.77
2019-02-25T21:29:23.198Z,54.81
2019-02-25T21:31:59.878Z,55.17
2019-02-25T21:34:35.718Z,55.18
2019-02-25T21:37:11.479Z,55.32
2019-02-25T21:39:47.309Z,55.55
2019-02-25T21:42:24.678Z,55.81
2019-02-25T21:45:02.349Z,56.03
2019-02-25T21:47:38.483Z,56.16
2019-02-25T21:50:21.396Z,56.56
2019-02-25T21:52:57.242Z,56.40
2019-02-25T21:55:34.875Z,56.54
2019-02-25T21:58:10.697Z,56.65
2019-02-25T22:00:46.559Z,56.67
2019-02-25T22:03:22.405Z,56.70
2019-02-25T22:06:00.451Z,56.96
2019-02-25T22:08:36.777Z,56.91
2019-02-25T22:11:15.464Z,56.97
2019-02-25T22:13:50.325Z,57.09
2019-02-25T22:16:27.804Z,56.94
2019-02-25T22:19:04.042Z,56.92
2019-02-25T22:21:39.945Z,57.03
2019-02-25T22:24:15.795Z,57.18
2019-02-25T22:26:53.549Z,57.18
2019-02-25T22:29:29.132Z,57.39
2019-02-25T22:32:06.385Z,57.50
2019-02-25T22:34:42.481Z,57.49
2019-02-25T22:37:19.970Z,57.53
2019-02-25T22:39:55.827Z,57.57
2019-02-25T22:42:33.300Z,57.51
2019-02-25T22:45:14.057Z,57.61
2019-02-25T22:47:49.647Z,57.55
2019-02-25T22:50:27.500Z,57.64
2019-02-25T22:53:04.219Z,57.62
2019-02-25T22:55:42.657Z,57.58
2019-02-25T22:58:18.168Z,57.63
2019-02-25T23:01:04.526Z,57.68
2019-02-25T23:03:44.896Z,57.57
2019-02-25T23:06:21.364Z,57.61
2019-02-25T23:08:57.882Z,57.73
2019-02-25T23:11:33.734Z,57.78
2019-02-25T23:14:11.413Z,57.74
2019-02-25T23:16:48.103Z,57.78
2019-02-25T23:19:23.958Z,57.84
2019-02-25T23:21:59.806Z,57.89
2019-02-25T23:24:38.734Z,57.91
2019-02-25T23:27:14.377Z,58.11
2019-02-25T23:29:50.449Z,58.17
2019-02-25T23:32:26.286Z,58.21
2019-02-25T23:35:02.659Z,58.29
2019-02-25T23:37:38.505Z,58.40
2019-02-25T23:40:16.655Z,58.64
2019-02-25T23:42:52.277Z,58.82
2019-02-25T23:45:28.129Z,58.82
2019-02-25T23:48:04.420Z,58.98
2019-02-25T23:50:41.606Z,59.15
2019-02-25T23:53:17.433Z,59.20
2019-02-25T23:55:54.429Z,59.17
2019-02-25T23:58:30.882Z,59.22
